sensor_id;sensor_type;location;lat;lon;timestamp;P1;durP1;ratioP1;P2;durP2;ratioP2
55710;SDS011;41612;51.994;5.880;2023-05-20T00:01:00;4.28;;;2.53;;
55710;SDS011;41612;51.994;5.880;2023-05-20T00:03:26;5.10;;;2.30;;
55710;SDS011;41612;51.994;5.880;2023-05-20T00:05:53;5.97;;;2.25;;
55710;SDS011;41612;51.994;5.880;2023-05-20T00:08:18;4.57;;;2.10;;
55710;SDS011;41612;51.994;5.880;2023-05-20T00:10:44;5.28;;;2.60;;
55710;SDS011;41612;51.994;5.880;2023-05-20T00:13:10;6.80;;;2.58;;
55710;SDS011;41612;51.994;5.880;2023-05-20T00:15:36;7.05;;;2.60;;
55710;SDS011;41612;51.994;5.880;2023-05-20T00:18:02;4.03;;;2.25;;
55710;SDS011;41612;51.994;5.880;2023-05-20T00:20:34;5.70;;;2.30;;
55710;SDS011;41612;51.994;5.880;2023-05-20T00:23:00;5.05;;;2.95;;
55710;SDS011;41612;51.994;5.880;2023-05-20T00:25:26;6.10;;;2.33;;
55710;SDS011;41612;51.994;5.880;2023-05-20T00:27:52;8.25;;;2.72;;
55710;SDS011;41612;51.994;5.880;2023-05-20T00:30:18;7.70;;;2.80;;
55710;SDS011;41612;51.994;5.880;2023-05-20T00:32:43;6.30;;;2.28;;
55710;SDS011;41612;51.994;5.880;2023-05-20T00:35:09;5.60;;;2.50;;
55710;SDS011;41612;51.994;5.880;2023-05-20T00:37:35;3.90;;;2.17;;
55710;SDS011;41612;51.994;5.880;2023-05-20T00:40:01;5.50;;;2.75;;
55710;SDS011;41612;51.994;5.880;2023-05-20T00:42:28;7.15;;;2.70;;
55710;SDS011;41612;51.994;5.880;2023-05-20T00:44:54;6.88;;;2.30;;
55710;SDS011;41612;51.994;5.880;2023-05-20T00:47:27;6.10;;;2.47;;
55710;SDS011;41612;51.994;5.880;2023-05-20T00:49:56;4.97;;;2.50;;
55710;SDS011;41612;51.994;5.880;2023-05-20T00:52:22;6.65;;;2.15;;
55710;SDS011;41612;51.994;5.880;2023-05-20T00:54:54;5.30;;;2.38;;
55710;SDS011;41612;51.994;5.880;2023-05-20T00:57:20;6.20;;;2.60;;
55710;SDS011;41612;51.994;5.880;2023-05-20T00:59:46;8.10;;;3.40;;
55710;SDS011;41612;51.994;5.880;2023-05-20T01:02:12;7.15;;;2.60;;
55710;SDS011;41612;51.994;5.880;2023-05-20T01:04:38;5.57;;;2.47;;
55710;SDS011;41612;51.994;5.880;2023-05-20T01:07:04;5.93;;;2.90;;
55710;SDS011;41612;51.994;5.880;2023-05-20T01:09:31;4.00;;;2.08;;
55710;SDS011;41612;51.994;5.880;2023-05-20T01:11:58;6.07;;;3.03;;
55710;SDS011;41612;51.994;5.880;2023-05-20T01:14:36;6.57;;;3.13;;
55710;SDS011;41612;51.994;5.880;2023-05-20T01:17:11;6.45;;;2.72;;
55710;SDS011;41612;51.994;5.880;2023-05-20T01:19:42;4.63;;;2.53;;
55710;SDS011;41612;51.994;5.880;2023-05-20T01:22:10;5.68;;;3.53;;
55710;SDS011;41612;51.994;5.880;2023-05-20T01:24:39;7.22;;;2.78;;
55710;SDS011;41612;51.994;5.880;2023-05-20T01:27:10;4.07;;;2.40;;
55710;SDS011;41612;51.994;5.880;2023-05-20T01:29:40;5.90;;;2.53;;
55710;SDS011;41612;51.994;5.880;2023-05-20T01:32:14;4.45;;;2.10;;
55710;SDS011;41612;51.994;5.880;2023-05-20T01:34:44;4.57;;;2.80;;
55710;SDS011;41612;51.994;5.880;2023-05-20T01:37:15;5.85;;;2.65;;
55710;SDS011;41612;51.994;5.880;2023-05-20T01:39:43;4.47;;;2.60;;
55710;SDS011;41612;51.994;5.880;2023-05-20T01:42:10;4.35;;;2.20;;
55710;SDS011;41612;51.994;5.880;2023-05-20T01:44:40;6.03;;;2.15;;
55710;SDS011;41612;51.994;5.880;2023-05-20T01:47:06;5.43;;;2.95;;
55710;SDS011;41612;51.994;5.880;2023-05-20T01:49:32;6.07;;;3.13;;
55710;SDS011;41612;51.994;5.880;2023-05-20T01:51:57;6.32;;;2.85;;
55710;SDS011;41612;51.994;5.880;2023-05-20T01:54:24;5.00;;;2.60;;
55710;SDS011;41612;51.994;5.880;2023-05-20T01:56:50;10.05;;;2.83;;
55710;SDS011;41612;51.994;5.880;2023-05-20T01:59:16;8.40;;;3.67;;
55710;SDS011;41612;51.994;5.880;2023-05-20T02:01:44;4.95;;;2.60;;
55710;SDS011;41612;51.994;5.880;2023-05-20T02:04:14;6.22;;;3.10;;
55710;SDS011;41612;51.994;5.880;2023-05-20T02:06:40;7.05;;;2.67;;
55710;SDS011;41612;51.994;5.880;2023-05-20T02:09:06;4.50;;;2.47;;
55710;SDS011;41612;51.994;5.880;2023-05-20T02:11:32;8.18;;;3.50;;
55710;SDS011;41612;51.994;5.880;2023-05-20T02:13:57;7.28;;;2.90;;
55710;SDS011;41612;51.994;5.880;2023-05-20T02:16:23;4.78;;;2.65;;
55710;SDS011;41612;51.994;5.880;2023-05-20T02:18:51;5.35;;;3.03;;
55710;SDS011;41612;51.994;5.880;2023-05-20T02:21:17;8.25;;;2.97;;
55710;SDS011;41612;51.994;5.880;2023-05-20T02:23:43;13.73;;;4.05;;
55710;SDS011;41612;51.994;5.880;2023-05-20T02:26:09;5.53;;;3.03;;
55710;SDS011;41612;51.994;5.880;2023-05-20T02:28:35;6.97;;;3.53;;
55710;SDS011;41612;51.994;5.880;2023-05-20T02:31:04;5.78;;;2.50;;
55710;SDS011;41612;51.994;5.880;2023-05-20T02:33:30;6.28;;;2.97;;
55710;SDS011;41612;51.994;5.880;2023-05-20T02:35:58;5.50;;;2.53;;
55710;SDS011;41612;51.994;5.880;2023-05-20T02:38:24;5.55;;;2.53;;
55710;SDS011;41612;51.994;5.880;2023-05-20T02:40:50;7.30;;;3.42;;
55710;SDS011;41612;51.994;5.880;2023-05-20T02:43:20;5.47;;;2.90;;
55710;SDS011;41612;51.994;5.880;2023-05-20T02:45:45;5.05;;;2.60;;
55710;SDS011;41612;51.994;5.880;2023-05-20T02:48:12;5.25;;;2.90;;
55710;SDS011;41612;51.994;5.880;2023-05-20T02:50:38;5.68;;;2.55;;
55710;SDS011;41612;51.994;5.880;2023-05-20T02:53:04;4.68;;;2.50;;
55710;SDS011;41612;51.994;5.880;2023-05-20T02:55:34;5.88;;;2.70;;
55710;SDS011;41612;51.994;5.880;2023-05-20T02:58:01;4.97;;;2.60;;
55710;SDS011;41612;51.994;5.880;2023-05-20T03:00:28;6.78;;;2.65;;
55710;SDS011;41612;51.994;5.880;2023-05-20T03:02:55;4.88;;;2.70;;
55710;SDS011;41612;51.994;5.880;2023-05-20T03:05:22;8.15;;;2.63;;
55710;SDS011;41612;51.994;5.880;2023-05-20T03:07:54;5.47;;;2.65;;
55710;SDS011;41612;51.994;5.880;2023-05-20T03:10:20;5.10;;;2.63;;
55710;SDS011;41612;51.994;5.880;2023-05-20T03:12:46;5.45;;;3.00;;
55710;SDS011;41612;51.994;5.880;2023-05-20T03:15:13;6.03;;;2.88;;
55710;SDS011;41612;51.994;5.880;2023-05-20T03:17:47;6.68;;;2.85;;
55710;SDS011;41612;51.994;5.880;2023-05-20T03:20:12;7.88;;;2.25;;
55710;SDS011;41612;51.994;5.880;2023-05-20T03:22:40;8.35;;;4.22;;
55710;SDS011;41612;51.994;5.880;2023-05-20T03:25:06;5.05;;;2.95;;
55710;SDS011;41612;51.994;5.880;2023-05-20T03:27:33;4.38;;;2.47;;
55710;SDS011;41612;51.994;5.880;2023-05-20T03:30:01;5.20;;;2.53;;
55710;SDS011;41612;51.994;5.880;2023-05-20T03:32:30;5.93;;;2.80;;
55710;SDS011;41612;51.994;5.880;2023-05-20T03:34:55;5.20;;;2.75;;
55710;SDS011;41612;51.994;5.880;2023-05-20T03:37:22;6.63;;;3.30;;
55710;SDS011;41612;51.994;5.880;2023-05-20T03:39:50;7.20;;;3.25;;
55710;SDS011;41612;51.994;5.880;2023-05-20T03:42:16;6.25;;;3.00;;
55710;SDS011;41612;51.994;5.880;2023-05-20T03:44:43;9.13;;;3.67;;
55710;SDS011;41612;51.994;5.880;2023-05-20T03:47:09;5.38;;;2.58;;
55710;SDS011;41612;51.994;5.880;2023-05-20T03:49:35;4.70;;;2.60;;
55710;SDS011;41612;51.994;5.880;2023-05-20T03:52:05;6.22;;;3.10;;
55710;SDS011;41612;51.994;5.880;2023-05-20T03:54:32;3.80;;;2.55;;
55710;SDS011;41612;51.994;5.880;2023-05-20T03:56:59;7.90;;;2.83;;
55710;SDS011;41612;51.994;5.880;2023-05-20T03:59:27;5.20;;;2.85;;
55710;SDS011;41612;51.994;5.880;2023-05-20T04:01:54;4.97;;;2.67;;
55710;SDS011;41612;51.994;5.880;2023-05-20T04:04:23;5.55;;;2.83;;
55710;SDS011;41612;51.994;5.880;2023-05-20T04:06:48;5.60;;;2.50;;
55710;SDS011;41612;51.994;5.880;2023-05-20T04:09:14;4.72;;;3.03;;
55710;SDS011;41612;51.994;5.880;2023-05-20T04:11:40;9.73;;;3.20;;
55710;SDS011;41612;51.994;5.880;2023-05-20T04:14:07;6.72;;;2.53;;
55710;SDS011;41612;51.994;5.880;2023-05-20T04:16:34;6.13;;;2.85;;
55710;SDS011;41612;51.994;5.880;2023-05-20T04:19:02;8.80;;;3.97;;
55710;SDS011;41612;51.994;5.880;2023-05-20T04:21:28;7.13;;;2.78;;
55710;SDS011;41612;51.994;5.880;2023-05-20T04:23:54;4.85;;;2.78;;
55710;SDS011;41612;51.994;5.880;2023-05-20T04:26:22;5.63;;;2.50;;
55710;SDS011;41612;51.994;5.880;2023-05-20T04:28:48;6.90;;;3.15;;
55710;SDS011;41612;51.994;5.880;2023-05-20T04:31:14;5.38;;;2.78;;
55710;SDS011;41612;51.994;5.880;2023-05-20T04:33:41;6.18;;;2.75;;
55710;SDS011;41612;51.994;5.880;2023-05-20T04:36:09;6.30;;;2.92;;
55710;SDS011;41612;51.994;5.880;2023-05-20T04:38:39;4.72;;;2.70;;
55710;SDS011;41612;51.994;5.880;2023-05-20T04:41:06;3.72;;;2.10;;
55710;SDS011;41612;51.994;5.880;2023-05-20T04:43:33;4.07;;;2.40;;
55710;SDS011;41612;51.994;5.880;2023-05-20T04:45:59;6.95;;;3.92;;
55710;SDS011;41612;51.994;5.880;2023-05-20T04:48:31;5.65;;;3.00;;
55710;SDS011;41612;51.994;5.880;2023-05-20T04:50:57;3.90;;;2.42;;
55710;SDS011;41612;51.994;5.880;2023-05-20T04:53:23;5.32;;;2.58;;
55710;SDS011;41612;51.994;5.880;2023-05-20T04:55:49;5.75;;;2.70;;
55710;SDS011;41612;51.994;5.880;2023-05-20T04:58:19;4.80;;;2.47;;
55710;SDS011;41612;51.994;5.880;2023-05-20T05:00:48;5.65;;;2.88;;
55710;SDS011;41612;51.994;5.880;2023-05-20T05:03:15;6.03;;;3.05;;
55710;SDS011;41612;51.994;5.880;2023-05-20T05:05:42;6.10;;;3.20;;
55710;SDS011;41612;51.994;5.880;2023-05-20T05:08:08;5.50;;;2.45;;
55710;SDS011;41612;51.994;5.880;2023-05-20T05:10:43;3.57;;;2.40;;
55710;SDS011;41612;51.994;5.880;2023-05-20T05:13:15;4.72;;;2.55;;
55710;SDS011;41612;51.994;5.880;2023-05-20T05:15:41;7.82;;;2.55;;
55710;SDS011;41612;51.994;5.880;2023-05-20T05:18:07;4.10;;;2.28;;
55710;SDS011;41612;51.994;5.880;2023-05-20T05:20:34;4.03;;;2.35;;
55710;SDS011;41612;51.994;5.880;2023-05-20T05:23:04;4.88;;;2.00;;
55710;SDS011;41612;51.994;5.880;2023-05-20T05:25:29;3.58;;;2.30;;
55710;SDS011;41612;51.994;5.880;2023-05-20T05:27:58;3.92;;;2.20;;
55710;SDS011;41612;51.994;5.880;2023-05-20T05:30:24;6.13;;;3.17;;
55710;SDS011;41612;51.994;5.880;2023-05-20T05:32:50;5.70;;;2.83;;
55710;SDS011;41612;51.994;5.880;2023-05-20T05:35:18;6.05;;;2.30;;
55710;SDS011;41612;51.994;5.880;2023-05-20T05:37:44;6.35;;;2.92;;
55710;SDS011;41612;51.994;5.880;2023-05-20T05:40:10;5.90;;;2.70;;
55710;SDS011;41612;51.994;5.880;2023-05-20T05:42:36;3.72;;;2.67;;
55710;SDS011;41612;51.994;5.880;2023-05-20T05:45:03;7.57;;;3.10;;
55710;SDS011;41612;51.994;5.880;2023-05-20T05:47:29;3.88;;;2.00;;
55710;SDS011;41612;51.994;5.880;2023-05-20T05:49:57;7.03;;;3.15;;
55710;SDS011;41612;51.994;5.880;2023-05-20T05:52:25;7.93;;;3.20;;
55710;SDS011;41612;51.994;5.880;2023-05-20T05:54:51;7.63;;;3.47;;
55710;SDS011;41612;51.994;5.880;2023-05-20T05:57:37;3.55;;;2.00;;
55710;SDS011;41612;51.994;5.880;2023-05-20T06:00:04;5.03;;;2.50;;
55710;SDS011;41612;51.994;5.880;2023-05-20T06:02:45;7.53;;;3.22;;
55710;SDS011;41612;51.994;5.880;2023-05-20T06:05:21;4.22;;;2.60;;
55710;SDS011;41612;51.994;5.880;2023-05-20T06:08:11;3.88;;;2.00;;
55710;SDS011;41612;51.994;5.880;2023-05-20T06:10:37;4.28;;;2.17;;
55710;SDS011;41612;51.994;5.880;2023-05-20T06:13:03;4.90;;;2.55;;
55710;SDS011;41612;51.994;5.880;2023-05-20T06:15:29;4.95;;;2.40;;
55710;SDS011;41612;51.994;5.880;2023-05-20T06:17:55;4.30;;;2.20;;
55710;SDS011;41612;51.994;5.880;2023-05-20T06:20:22;3.28;;;2.20;;
55710;SDS011;41612;51.994;5.880;2023-05-20T06:22:47;3.97;;;2.17;;
55710;SDS011;41612;51.994;5.880;2023-05-20T06:25:14;6.47;;;2.70;;
55710;SDS011;41612;51.994;5.880;2023-05-20T06:27:40;3.83;;;2.47;;
55710;SDS011;41612;51.994;5.880;2023-05-20T06:30:09;4.10;;;2.15;;
55710;SDS011;41612;51.994;5.880;2023-05-20T06:32:38;5.07;;;2.58;;
55710;SDS011;41612;51.994;5.880;2023-05-20T06:35:04;4.72;;;2.25;;
55710;SDS011;41612;51.994;5.880;2023-05-20T06:37:30;7.35;;;3.50;;
55710;SDS011;41612;51.994;5.880;2023-05-20T06:39:56;5.93;;;2.80;;
55710;SDS011;41612;51.994;5.880;2023-05-20T06:42:22;5.32;;;3.28;;
55710;SDS011;41612;51.994;5.880;2023-05-20T06:45:01;8.95;;;3.90;;
55710;SDS011;41612;51.994;5.880;2023-05-20T06:47:34;4.65;;;2.92;;
55710;SDS011;41612;51.994;5.880;2023-05-20T06:50:04;10.23;;;5.57;;
55710;SDS011;41612;51.994;5.880;2023-05-20T06:52:35;5.00;;;2.42;;
55710;SDS011;41612;51.994;5.880;2023-05-20T06:55:01;5.15;;;3.05;;
55710;SDS011;41612;51.994;5.880;2023-05-20T06:57:29;5.57;;;3.20;;
55710;SDS011;41612;51.994;5.880;2023-05-20T06:59:55;4.30;;;2.50;;
55710;SDS011;41612;51.994;5.880;2023-05-20T07:02:21;6.03;;;3.63;;
55710;SDS011;41612;51.994;5.880;2023-05-20T07:04:48;5.55;;;3.45;;
55710;SDS011;41612;51.994;5.880;2023-05-20T07:07:14;5.22;;;3.25;;
55710;SDS011;41612;51.994;5.880;2023-05-20T07:09:39;7.20;;;3.67;;
55710;SDS011;41612;51.994;5.880;2023-05-20T07:12:07;6.20;;;3.45;;
55710;SDS011;41612;51.994;5.880;2023-05-20T07:14:33;8.45;;;4.07;;
55710;SDS011;41612;51.994;5.880;2023-05-20T07:17:00;5.55;;;3.58;;
55710;SDS011;41612;51.994;5.880;2023-05-20T07:19:25;6.35;;;3.92;;
55710;SDS011;41612;51.994;5.880;2023-05-20T07:21:52;7.30;;;3.85;;
55710;SDS011;41612;51.994;5.880;2023-05-20T07:24:36;6.85;;;4.03;;
55710;SDS011;41612;51.994;5.880;2023-05-20T07:27:03;8.70;;;3.50;;
55710;SDS011;41612;51.994;5.880;2023-05-20T07:29:30;10.88;;;4.30;;
55710;SDS011;41612;51.994;5.880;2023-05-20T07:32:01;6.30;;;3.67;;
55710;SDS011;41612;51.994;5.880;2023-05-20T07:34:34;6.93;;;5.13;;
55710;SDS011;41612;51.994;5.880;2023-05-20T07:37:10;9.77;;;4.82;;
55710;SDS011;41612;51.994;5.880;2023-05-20T07:39:40;8.32;;;4.55;;
55710;SDS011;41612;51.994;5.880;2023-05-20T07:42:06;10.18;;;5.05;;
55710;SDS011;41612;51.994;5.880;2023-05-20T07:44:32;7.43;;;3.75;;
55710;SDS011;41612;51.994;5.880;2023-05-20T07:46:58;6.85;;;3.92;;
55710;SDS011;41612;51.994;5.880;2023-05-20T07:49:24;6.20;;;3.50;;
55710;SDS011;41612;51.994;5.880;2023-05-20T07:51:50;6.55;;;3.70;;
55710;SDS011;41612;51.994;5.880;2023-05-20T07:59:17;5.38;;;2.85;;
55710;SDS011;41612;51.994;5.880;2023-05-20T08:01:46;9.20;;;3.05;;
55710;SDS011;41612;51.994;5.880;2023-05-20T08:04:15;4.32;;;3.13;;
55710;SDS011;41612;51.994;5.880;2023-05-20T08:06:40;4.70;;;2.90;;
55710;SDS011;41612;51.994;5.880;2023-05-20T08:09:12;9.65;;;3.00;;
55710;SDS011;41612;51.994;5.880;2023-05-20T08:11:48;5.97;;;3.72;;
55710;SDS011;41612;51.994;5.880;2023-05-20T08:14:17;5.38;;;2.80;;
55710;SDS011;41612;51.994;5.880;2023-05-20T08:19:30;12.13;;;3.95;;
55710;SDS011;41612;51.994;5.880;2023-05-20T08:21:56;6.38;;;2.78;;
55710;SDS011;41612;51.994;5.880;2023-05-20T08:24:24;4.90;;;2.55;;
55710;SDS011;41612;51.994;5.880;2023-05-20T08:26:52;6.55;;;2.75;;
55710;SDS011;41612;51.994;5.880;2023-05-20T08:29:21;4.93;;;2.40;;
55710;SDS011;41612;51.994;5.880;2023-05-20T08:31:47;5.50;;;2.30;;
55710;SDS011;41612;51.994;5.880;2023-05-20T08:34:14;6.28;;;2.40;;
55710;SDS011;41612;51.994;5.880;2023-05-20T08:36:40;6.63;;;2.22;;
55710;SDS011;41612;51.994;5.880;2023-05-20T08:39:09;8.40;;;2.63;;
55710;SDS011;41612;51.994;5.880;2023-05-20T08:41:39;8.57;;;3.65;;
55710;SDS011;41612;51.994;5.880;2023-05-20T08:44:05;5.50;;;2.55;;
55710;SDS011;41612;51.994;5.880;2023-05-20T08:46:34;7.22;;;2.42;;
55710;SDS011;41612;51.994;5.880;2023-05-20T08:49:01;5.38;;;2.08;;
55710;SDS011;41612;51.994;5.880;2023-05-20T08:51:27;6.20;;;3.17;;
55710;SDS011;41612;51.994;5.880;2023-05-20T08:53:58;6.78;;;2.40;;
55710;SDS011;41612;51.994;5.880;2023-05-20T08:56:24;5.70;;;2.83;;
55710;SDS011;41612;51.994;5.880;2023-05-20T08:58:54;6.00;;;2.30;;
55710;SDS011;41612;51.994;5.880;2023-05-20T09:01:23;6.55;;;2.90;;
55710;SDS011;41612;51.994;5.880;2023-05-20T09:03:54;3.63;;;2.15;;
55710;SDS011;41612;51.994;5.880;2023-05-20T09:06:27;5.35;;;1.80;;
55710;SDS011;41612;51.994;5.880;2023-05-20T09:08:54;6.05;;;2.15;;
55710;SDS011;41612;51.994;5.880;2023-05-20T09:11:27;4.90;;;1.90;;
55710;SDS011;41612;51.994;5.880;2023-05-20T09:13:55;2.58;;;1.67;;
55710;SDS011;41612;51.994;5.880;2023-05-20T09:16:20;5.28;;;2.00;;
55710;SDS011;41612;51.994;5.880;2023-05-20T09:18:46;3.83;;;1.63;;
55710;SDS011;41612;51.994;5.880;2023-05-20T09:21:12;4.00;;;2.13;;
55710;SDS011;41612;51.994;5.880;2023-05-20T09:23:37;3.88;;;2.15;;
55710;SDS011;41612;51.994;5.880;2023-05-20T09:26:03;4.63;;;2.10;;
55710;SDS011;41612;51.994;5.880;2023-05-20T09:28:29;4.13;;;2.20;;
55710;SDS011;41612;51.994;5.880;2023-05-20T09:30:59;3.42;;;2.08;;
55710;SDS011;41612;51.994;5.880;2023-05-20T09:33:29;4.30;;;2.05;;
55710;SDS011;41612;51.994;5.880;2023-05-20T09:36:08;3.47;;;1.60;;
55710;SDS011;41612;51.994;5.880;2023-05-20T09:38:36;3.90;;;1.98;;
55710;SDS011;41612;51.994;5.880;2023-05-20T09:41:06;4.47;;;1.73;;
55710;SDS011;41612;51.994;5.880;2023-05-20T09:43:35;4.72;;;2.08;;
55710;SDS011;41612;51.994;5.880;2023-05-20T09:46:01;6.45;;;1.88;;
55710;SDS011;41612;51.994;5.880;2023-05-20T09:48:28;4.25;;;1.80;;
55710;SDS011;41612;51.994;5.880;2023-05-20T09:50:57;2.67;;;1.75;;
55710;SDS011;41612;51.994;5.880;2023-05-20T09:53:27;4.90;;;1.77;;
55710;SDS011;41612;51.994;5.880;2023-05-20T09:55:53;5.00;;;2.00;;
55710;SDS011;41612;51.994;5.880;2023-05-20T09:58:20;8.98;;;1.90;;
55710;SDS011;41612;51.994;5.880;2023-05-20T10:00:55;7.85;;;1.95;;
55710;SDS011;41612;51.994;5.880;2023-05-20T10:03:21;7.78;;;1.98;;
55710;SDS011;41612;51.994;5.880;2023-05-20T10:11:54;4.93;;;2.25;;
55710;SDS011;41612;51.994;5.880;2023-05-20T10:14:59;5.05;;;1.50;;
55710;SDS011;41612;51.994;5.880;2023-05-20T10:20:48;7.15;;;2.13;;
55710;SDS011;41612;51.994;5.880;2023-05-20T10:23:22;6.88;;;2.08;;
55710;SDS011;41612;51.994;5.880;2023-05-20T10:25:49;6.85;;;2.03;;
55710;SDS011;41612;51.994;5.880;2023-05-20T10:28:24;3.63;;;1.65;;
55710;SDS011;41612;51.994;5.880;2023-05-20T10:52:36;4.30;;;2.00;;
55710;SDS011;41612;51.994;5.880;2023-05-20T10:55:03;3.33;;;1.65;;
55710;SDS011;41612;51.994;5.880;2023-05-20T10:57:29;6.38;;;2.28;;
55710;SDS011;41612;51.994;5.880;2023-05-20T11:00:02;4.28;;;1.67;;
55710;SDS011;41612;51.994;5.880;2023-05-20T11:02:29;3.78;;;1.58;;
55710;SDS011;41612;51.994;5.880;2023-05-20T11:05:00;7.18;;;2.17;;
55710;SDS011;41612;51.994;5.880;2023-05-20T11:07:30;2.92;;;1.58;;
55710;SDS011;41612;51.994;5.880;2023-05-20T11:31:29;3.58;;;1.35;;
55710;SDS011;41612;51.994;5.880;2023-05-20T11:33:57;3.25;;;1.40;;
55710;SDS011;41612;51.994;5.880;2023-05-20T11:36:26;4.15;;;1.55;;
55710;SDS011;41612;51.994;5.880;2023-05-20T11:38:53;3.50;;;1.55;;
55710;SDS011;41612;51.994;5.880;2023-05-20T11:41:26;3.08;;;1.77;;
55710;SDS011;41612;51.994;5.880;2023-05-20T11:43:56;4.85;;;1.83;;
55710;SDS011;41612;51.994;5.880;2023-05-20T11:46:23;3.53;;;1.55;;
55710;SDS011;41612;51.994;5.880;2023-05-20T11:48:52;3.42;;;1.30;;
55710;SDS011;41612;51.994;5.880;2023-05-20T11:51:28;2.72;;;1.33;;
55710;SDS011;41612;51.994;5.880;2023-05-20T11:54:04;2.83;;;1.40;;
55710;SDS011;41612;51.994;5.880;2023-05-20T11:56:37;3.45;;;1.45;;
55710;SDS011;41612;51.994;5.880;2023-05-20T11:59:05;2.70;;;1.40;;
55710;SDS011;41612;51.994;5.880;2023-05-20T12:01:35;4.47;;;1.70;;
55710;SDS011;41612;51.994;5.880;2023-05-20T12:04:10;4.32;;;1.63;;
55710;SDS011;41612;51.994;5.880;2023-05-20T12:06:42;2.55;;;1.23;;
55710;SDS011;41612;51.994;5.880;2023-05-20T12:09:08;2.72;;;1.30;;
55710;SDS011;41612;51.994;5.880;2023-05-20T12:11:35;2.45;;;1.20;;
55710;SDS011;41612;51.994;5.880;2023-05-20T12:14:10;4.32;;;1.30;;
55710;SDS011;41612;51.994;5.880;2023-05-20T12:16:36;2.22;;;1.45;;
55710;SDS011;41612;51.994;5.880;2023-05-20T12:19:02;2.30;;;1.13;;
55710;SDS011;41612;51.994;5.880;2023-05-20T12:21:28;1.75;;;1.20;;
55710;SDS011;41612;51.994;5.880;2023-05-20T12:23:55;2.75;;;1.40;;
55710;SDS011;41612;51.994;5.880;2023-05-20T12:26:24;3.10;;;1.60;;
55710;SDS011;41612;51.994;5.880;2023-05-20T12:28:56;4.10;;;1.90;;
55710;SDS011;41612;51.994;5.880;2023-05-20T12:31:30;2.07;;;1.20;;
55710;SDS011;41612;51.994;5.880;2023-05-20T12:34:25;2.50;;;1.00;;
55710;SDS011;41612;51.994;5.880;2023-05-20T12:36:52;2.88;;;1.45;;
55710;SDS011;41612;51.994;5.880;2023-05-20T12:39:57;2.05;;;0.90;;
55710;SDS011;41612;51.994;5.880;2023-05-20T12:42:28;1.63;;;1.00;;
55710;SDS011;41612;51.994;5.880;2023-05-20T12:44:58;2.90;;;1.20;;
55710;SDS011;41612;51.994;5.880;2023-05-20T12:47:27;3.30;;;1.38;;
55710;SDS011;41612;51.994;5.880;2023-05-20T12:49:53;3.08;;;1.02;;
55710;SDS011;41612;51.994;5.880;2023-05-20T12:52:20;3.40;;;1.63;;
55710;SDS011;41612;51.994;5.880;2023-05-20T12:54:55;2.45;;;1.40;;
55710;SDS011;41612;51.994;5.880;2023-05-20T12:57:24;3.03;;;1.55;;
55710;SDS011;41612;51.994;5.880;2023-05-20T12:59:50;2.80;;;1.55;;
55710;SDS011;41612;51.994;5.880;2023-05-20T13:02:16;5.35;;;1.33;;
55710;SDS011;41612;51.994;5.880;2023-05-20T13:04:44;2.97;;;1.35;;
55710;SDS011;41612;51.994;5.880;2023-05-20T13:07:10;4.93;;;1.60;;
55710;SDS011;41612;51.994;5.880;2023-05-20T13:09:45;5.43;;;1.38;;
55710;SDS011;41612;51.994;5.880;2023-05-20T13:12:19;2.50;;;1.27;;
55710;SDS011;41612;51.994;5.880;2023-05-20T13:14:45;1.55;;;0.93;;
55710;SDS011;41612;51.994;5.880;2023-05-20T13:17:11;2.22;;;1.38;;
55710;SDS011;41612;51.994;5.880;2023-05-20T13:19:37;2.33;;;1.20;;
55710;SDS011;41612;51.994;5.880;2023-05-20T13:22:03;3.53;;;1.50;;
55710;SDS011;41612;51.994;5.880;2023-05-20T13:24:33;2.13;;;1.23;;
55710;SDS011;41612;51.994;5.880;2023-05-20T13:26:59;3.42;;;1.35;;
55710;SDS011;41612;51.994;5.880;2023-05-20T13:29:33;2.13;;;1.13;;
55710;SDS011;41612;51.994;5.880;2023-05-20T13:31:59;3.00;;;1.50;;
55710;SDS011;41612;51.994;5.880;2023-05-20T13:40:13;7.40;;;1.80;;
55710;SDS011;41612;51.994;5.880;2023-05-20T13:42:48;1.55;;;1.10;;
55710;SDS011;41612;51.994;5.880;2023-05-20T13:45:34;3.00;;;1.38;;
55710;SDS011;41612;51.994;5.880;2023-05-20T13:48:01;2.70;;;1.40;;
55710;SDS011;41612;51.994;5.880;2023-05-20T13:50:27;4.82;;;1.58;;
55710;SDS011;41612;51.994;5.880;2023-05-20T13:52:53;2.42;;;1.30;;
55710;SDS011;41612;51.994;5.880;2023-05-20T13:55:22;2.47;;;1.17;;
55710;SDS011;41612;51.994;5.880;2023-05-20T13:57:48;4.70;;;1.38;;
55710;SDS011;41612;51.994;5.880;2023-05-20T14:00:18;4.05;;;1.63;;
55710;SDS011;41612;51.994;5.880;2023-05-20T14:02:44;2.22;;;1.13;;
55710;SDS011;41612;51.994;5.880;2023-05-20T14:07:52;3.40;;;1.90;;
55710;SDS011;41612;51.994;5.880;2023-05-20T14:10:21;4.07;;;1.48;;
55710;SDS011;41612;51.994;5.880;2023-05-20T14:12:47;1.85;;;1.17;;
55710;SDS011;41612;51.994;5.880;2023-05-20T14:15:14;1.95;;;1.00;;
55710;SDS011;41612;51.994;5.880;2023-05-20T14:17:46;2.47;;;1.08;;
55710;SDS011;41612;51.994;5.880;2023-05-20T14:20:17;2.85;;;1.20;;
55710;SDS011;41612;51.994;5.880;2023-05-20T14:22:45;4.35;;;1.58;;
55710;SDS011;41612;51.994;5.880;2023-05-20T14:25:11;2.38;;;1.17;;
55710;SDS011;41612;51.994;5.880;2023-05-20T14:27:40;6.57;;;1.45;;
55710;SDS011;41612;51.994;5.880;2023-05-20T14:30:21;3.83;;;1.75;;
55710;SDS011;41612;51.994;5.880;2023-05-20T14:33:06;2.30;;;1.08;;
55710;SDS011;41612;51.994;5.880;2023-05-20T14:35:38;2.22;;;1.00;;
55710;SDS011;41612;51.994;5.880;2023-05-20T14:38:03;3.45;;;1.30;;
55710;SDS011;41612;51.994;5.880;2023-05-20T14:40:34;2.75;;;1.40;;
55710;SDS011;41612;51.994;5.880;2023-05-20T14:43:02;3.58;;;1.33;;
55710;SDS011;41612;51.994;5.880;2023-05-20T14:45:35;4.07;;;1.58;;
55710;SDS011;41612;51.994;5.880;2023-05-20T14:48:01;3.05;;;1.20;;
55710;SDS011;41612;51.994;5.880;2023-05-20T14:50:38;2.47;;;1.27;;
55710;SDS011;41612;51.994;5.880;2023-05-20T14:53:07;2.63;;;1.00;;
55710;SDS011;41612;51.994;5.880;2023-05-20T14:55:32;3.85;;;1.20;;
55710;SDS011;41612;51.994;5.880;2023-05-20T14:58:07;2.47;;;1.45;;
55710;SDS011;41612;51.994;5.880;2023-05-20T15:00:36;3.47;;;1.25;;
55710;SDS011;41612;51.994;5.880;2023-05-20T15:03:08;2.20;;;0.98;;
55710;SDS011;41612;51.994;5.880;2023-05-20T15:05:39;2.92;;;1.20;;
55710;SDS011;41612;51.994;5.880;2023-05-20T15:08:06;2.58;;;1.50;;
55710;SDS011;41612;51.994;5.880;2023-05-20T15:10:32;4.70;;;1.30;;
55710;SDS011;41612;51.994;5.880;2023-05-20T15:12:57;2.10;;;1.25;;
55710;SDS011;41612;51.994;5.880;2023-05-20T15:15:23;2.35;;;1.50;;
55710;SDS011;41612;51.994;5.880;2023-05-20T15:17:49;2.63;;;1.38;;
55710;SDS011;41612;51.994;5.880;2023-05-20T15:20:23;3.05;;;1.30;;
55710;SDS011;41612;51.994;5.880;2023-05-20T15:22:55;2.00;;;1.05;;
55710;SDS011;41612;51.994;5.880;2023-05-20T15:25:22;2.38;;;1.40;;
55710;SDS011;41612;51.994;5.880;2023-05-20T15:27:47;2.13;;;1.25;;
55710;SDS011;41612;51.994;5.880;2023-05-20T15:35:43;3.78;;;1.35;;
55710;SDS011;41612;51.994;5.880;2023-05-20T15:38:09;1.52;;;1.00;;
55710;SDS011;41612;51.994;5.880;2023-05-20T15:40:35;2.33;;;1.20;;
55710;SDS011;41612;51.994;5.880;2023-05-20T15:43:01;3.50;;;1.38;;
55710;SDS011;41612;51.994;5.880;2023-05-20T15:45:29;2.63;;;1.30;;
55710;SDS011;41612;51.994;5.880;2023-05-20T15:47:55;2.72;;;1.27;;
55710;SDS011;41612;51.994;5.880;2023-05-20T15:50:21;3.40;;;1.55;;
55710;SDS011;41612;51.994;5.880;2023-05-20T15:52:48;4.43;;;1.27;;
55710;SDS011;41612;51.994;5.880;2023-05-20T15:55:19;2.47;;;1.40;;
55710;SDS011;41612;51.994;5.880;2023-05-20T15:57:49;2.50;;;1.25;;
55710;SDS011;41612;51.994;5.880;2023-05-20T16:44:40;3.80;;;1.20;;
55710;SDS011;41612;51.994;5.880;2023-05-20T17:47:45;3.42;;;1.50;;
55710;SDS011;41612;51.994;5.880;2023-05-20T18:06:23;3.33;;;1.47;;
55710;SDS011;41612;51.994;5.880;2023-05-20T18:09:13;2.65;;;2.05;;
55710;SDS011;41612;51.994;5.880;2023-05-20T18:11:39;3.58;;;2.42;;